Time;durP1;ratioP1;P1;durP2;ratioP2;P2;SDS_P1;SDS_P2;PMS_P1;PMS_P2;Temp;Humidity;BMP_temperature;BMP_pressure;BME280_temperature;BME280_humidity;BME280_pressure;Samples;Min_cycle;Max_cycle;Signal;HPM_P1;HPM_P2
2022/06/15 02:48:11;;;;;;;6.40;1.70;;;15.80;94.10;;;;;;5034315;23;93648;-77
2022/06/15 02:50:47;;;;;;;4.72;1.20;;;15.80;94.70;;;;;;4919711;28;91878;-77
2022/06/15 02:53:17;;;;;;;6.25;1.48;;;15.80;94.20;;;;;;4922883;28;91739;-78
2022/06/15 02:55:44;;;;;;;6.82;1.27;;;15.70;94.70;;;;;;4927519;28;91277;-78
2022/06/15 02:58:20;;;;;;;5.45;1.80;;;15.70;94.70;;;;;;4927403;28;92226;-78
2022/06/15 03:00:46;;;;;;;7.85;0.98;;;15.60;95.20;;;;;;4928198;28;91838;-78
2022/06/15 03:03:11;;;;;;;2.95;1.20;;;15.60;94.90;;;;;;4927750;28;92182;-78
2022/06/15 03:05:37;;;;;;;4.47;1.33;;;15.60;94.90;;;;;;4931580;28;91657;-79
2022/06/15 03:08:03;;;;;;;4.93;1.30;;;15.60;95.30;;;;;;4929851;28;92272;-78
2022/06/15 03:10:29;;;;;;;6.47;1.40;;;15.60;95.60;;;;;;4927823;28;92628;-78
2022/06/15 03:12:54;;;;;;;3.30;1.10;;;15.60;95.00;;;;;;4930295;28;91675;-78
2022/06/15 03:15:20;;;;;;;3.65;1.20;;;15.60;94.80;;;;;;4929796;28;91700;-81
2022/06/15 03:17:46;;;;;;;4.22;1.30;;;15.70;94.60;;;;;;4925544;28;91889;-80
2022/06/15 03:20:12;;;;;;;2.67;0.90;;;15.70;94.40;;;;;;4929642;28;91194;-79
2022/06/15 03:22:38;;;;;;;5.55;1.40;;;15.70;94.10;;;;;;4929552;28;91713;-80
2022/06/15 03:25:04;;;;;;;5.47;1.45;;;15.70;94.50;;;;;;4928969;28;91290;-80
2022/06/15 03:27:30;;;;;;;4.57;1.20;;;15.50;95.30;;;;;;4928854;28;96247;-80
2022/06/15 03:29:57;;;;;;;3.40;1.50;;;15.40;96.70;;;;;;4929023;28;92207;-80
2022/06/15 03:32:22;;;;;;;5.93;1.67;;;15.30;97.70;;;;;;4929308;28;91757;-80
2022/06/15 03:34:48;;;;;;;5.18;1.80;;;15.30;98.00;;;;;;4929720;28;91669;-80
2022/06/15 03:37:14;;;;;;;3.25;1.58;;;15.30;98.10;;;;;;4929315;28;91896;-80
2022/06/15 03:39:40;;;;;;;4.32;1.63;;;15.30;97.90;;;;;;4929208;28;91675;-80
2022/06/15 03:42:18;;;;;;;6.75;1.67;;;15.40;97.80;;;;;;4929718;28;91563;-80
2022/06/15 03:44:44;;;;;;;4.18;1.40;;;15.30;97.80;;;;;;4929246;28;91036;-79
2022/06/15 03:47:16;;;;;;;5.28;2.10;;;15.40;97.30;;;;;;4928357;28;92780;-80
2022/06/15 03:49:43;;;;;;;5.00;1.85;;;15.40;97.60;;;;;;4928537;28;93098;-79
2022/06/15 03:52:10;;;;;;;5.95;2.13;;;15.40;98.00;;;;;;4928241;28;92226;-79
2022/06/15 03:54:36;;;;;;;3.67;2.00;;;15.40;98.00;;;;;;4929540;28;91842;-79
2022/06/15 03:57:03;;;;;;;7.30;2.20;;;15.60;97.80;;;;;;4928629;28;92690;-80
2022/06/15 03:59:29;;;;;;;5.55;2.25;;;15.70;97.80;;;;;;4928067;28;94647;-79
2022/06/15 04:01:55;;;;;;;5.03;2.30;;;15.80;97.40;;;;;;4930113;28;91656;-79
2022/06/15 04:04:20;;;;;;;8.27;2.30;;;16.00;96.50;;;;;;4929103;28;91741;-79
2022/06/15 04:06:46;;;;;;;7.78;2.40;;;16.20;96.40;;;;;;4928601;28;92320;-79
2022/06/15 04:09:12;;;;;;;4.90;2.47;;;16.60;94.30;;;;;;4928834;28;91233;-79
2022/06/15 04:14:22;;;;;;;5.90;1.55;;;17.10;92.40;;;;;;4929134;28;91864;-79
2022/06/15 04:16:53;;;;;;;5.43;1.90;;;17.40;91.90;;;;;;4927625;28;93692;-80
2022/06/15 04:19:22;;;;;;;4.47;1.92;;;18.30;91.40;;;;;;4928532;28;92228;-79
2022/06/15 04:21:48;;;;;;;4.20;1.63;;;19.10;88.80;;;;;;4928087;28;91700;-79
2022/06/15 04:24:15;;;;;;;4.50;2.25;;;19.80;85.50;;;;;;4928108;28;91839;-79
2022/06/15 04:26:43;;;;;;;6.22;2.22;;;20.40;79.60;;;;;;4928264;28;91940;-79
2022/06/15 04:29:08;;;;;;;4.75;2.00;;;20.50;78.60;;;;;;4927958;28;92298;-80
2022/06/15 04:31:34;;;;;;;5.57;2.15;;;20.20;78.90;;;;;;4927491;28;91386;-80
2022/06/15 04:34:00;;;;;;;7.05;1.70;;;20.10;78.50;;;;;;4928525;28;92089;-79
2022/06/15 04:36:29;;;;;;;7.32;1.75;;;20.10;80.00;;;;;;4927955;28;93245;-79
2022/06/15 04:38:54;;;;;;;4.72;1.98;;;20.00;77.90;;;;;;4927966;28;92115;-80
2022/06/15 04:41:20;;;;;;;9.68;1.90;;;19.90;78.60;;;;;;4928671;28;92674;-80
2022/06/15 04:43:46;;;;;;;5.95;1.60;;;19.80;79.20;;;;;;4910987;28;91362;-81
2022/06/15 04:46:12;;;;;;;4.30;1.45;;;19.90;79.50;;;;;;4926770;28;92548;-81
2022/06/15 04:48:38;;;;;;;4.32;1.75;;;20.10;79.40;;;;;;4928142;28;91176;-80
2022/06/15 04:51:15;;;;;;;3.10;1.50;;;20.60;79.20;;;;;;4928796;28;91603;-81
2022/06/15 04:53:41;;;;;;;7.05;1.88;;;21.90;76.90;;;;;;4928247;28;91771;-80
2022/06/15 04:56:07;;;;;;;5.72;2.00;;;23.10;71.00;;;;;;4929321;28;91905;-80
2022/06/15 04:58:33;;;;;;;4.72;1.60;;;23.30;69.90;;;;;;4929526;28;91888;-81
2022/06/15 05:00:59;;;;;;;5.88;1.98;;;23.70;67.30;;;;;;4928903;28;91953;-79
2022/06/15 05:03:25;;;;;;;4.15;1.92;;;23.60;66.20;;;;;;4928712;28;91963;-80
2022/06/15 05:05:56;;;;;;;4.03;1.90;;;23.90;65.10;;;;;;4927895;28;93090;-79
2022/06/15 05:08:21;;;;;;;6.03;2.03;;;23.70;65.20;;;;;;4927962;28;92899;-79
2022/06/15 05:10:47;;;;;;;2.80;1.67;;;23.70;65.40;;;;;;4927712;28;91866;-80
2022/06/15 05:13:13;;;;;;;4.22;1.70;;;24.10;63.80;;;;;;4928133;28;91897;-80
2022/06/15 05:15:39;;;;;;;3.75;1.55;;;24.50;62.80;;;;;;4927893;28;92693;-80
2022/06/15 05:18:07;;;;;;;15.40;2.30;;;24.60;62.80;;;;;;4928014;28;91845;-80
2022/06/15 05:20:38;;;;;;;5.75;1.98;;;26.10;61.50;;;;;;4928546;28;91800;-80
2022/06/15 05:23:04;;;;;;;6.28;2.15;;;27.20;57.20;;;;;;4928635;28;91206;-80
2022/06/15 05:25:30;;;;;;;6.13;1.92;;;28.00;55.40;;;;;;4928043;28;91855;-80
2022/06/15 05:27:56;;;;;;;17.92;2.55;;;28.40;54.40;;;;;;4927835;28;92019;-80
2022/06/15 05:30:22;;;;;;;4.65;1.83;;;27.90;54.20;;;;;;4927793;28;92861;-80
2022/06/15 05:32:47;;;;;;;5.32;2.17;;;27.50;55.10;;;;;;4928028;28;91627;-80
2022/06/15 05:35:13;;;;;;;6.18;2.38;;;26.20;56.30;;;;;;4927006;28;92205;-80
2022/06/15 05:37:39;;;;;;;3.55;1.63;;;25.40;59.00;;;;;;4927487;28;91916;-80
2022/06/15 05:40:06;;;;;;;8.23;2.03;;;26.40;58.60;;;;;;4927533;28;91821;-80
2022/06/15 05:42:32;;;;;;;9.13;2.45;;;28.00;57.10;;;;;;4927384;28;91703;-80
2022/06/15 05:44:58;;;;;;;4.35;1.92;;;29.50;53.60;;;;;;4927484;28;92234;-80
2022/06/15 05:47:24;;;;;;;4.78;1.80;;;29.40;52.50;;;;;;4926896;28;93793;-80
2022/06/15 05:49:50;;;;;;;4.95;2.28;;;30.20;51.60;;;;;;4929101;28;91835;-80
2022/06/15 05:52:16;;;;;;;5.22;2.00;;;29.90;49.80;;;;;;4927551;28;91931;-80
2022/06/15 05:54:41;;;;;;;5.03;1.80;;;28.60;53.20;;;;;;4913620;28;93644;-80
2022/06/15 05:57:23;;;;;;;12.20;2.53;;;28.90;54.00;;;;;;4908293;28;92708;-80
2022/06/15 05:59:50;;;;;;;3.55;2.28;;;29.50;52.60;;;;;;4909521;28;91269;-80
2022/06/15 06:02:18;;;;;;;5.63;2.28;;;30.60;50.60;;;;;;4909202;28;92045;-80
2022/06/15 06:04:44;;;;;;;4.05;2.17;;;30.80;50.10;;;;;;4907092;28;92353;-83
2022/06/15 06:07:11;;;;;;;3.70;1.75;;;31.00;49.20;;;;;;4928063;28;91909;-80
2022/06/15 06:09:37;;;;;;;4.57;2.53;;;30.80;50.10;;;;;;4928500;28;91836;-80
2022/06/15 06:12:03;;;;;;;4.57;2.47;;;31.20;49.40;;;;;;4929114;28;91275;-80
2022/06/15 06:14:29;;;;;;;6.72;2.22;;;31.00;48.90;;;;;;4927997;28;92339;-80
2022/06/15 06:16:55;;;;;;;6.90;2.90;;;31.80;48.60;;;;;;4928535;28;93103;-80
2022/06/15 06:19:20;;;;;;;6.40;2.70;;;31.10;47.10;;;;;;4928194;28;92761;-81
2022/06/15 06:21:46;;;;;;;4.68;2.42;;;29.90;49.80;;;;;;4923108;28;91763;-81
2022/06/15 06:24:12;;;;;;;5.55;2.30;;;28.50;53.50;;;;;;4920669;28;92197;-82
2022/06/15 06:26:38;;;;;;;8.68;2.42;;;28.90;54.50;;;;;;4908112;28;92220;-80
2022/06/15 06:29:05;;;;;;;3.50;2.33;;;29.50;52.30;;;;;;4923242;28;91727;-80
2022/06/15 06:31:31;;;;;;;5.15;2.28;;;29.80;52.00;;;;;;4926874;28;92071;-80
2022/06/15 06:33:58;;;;;;;5.50;2.55;;;29.40;51.80;;;;;;4924699;28;92472;-81
2022/06/15 06:36:44;;;;;;;5.20;2.53;;;28.40;53.80;;;;;;4928244;28;91238;-80
2022/06/15 06:39:16;;;;;;;7.13;2.30;;;27.50;55.10;;;;;;4928603;28;91814;-81
2022/06/15 06:41:42;;;;;;;8.85;2.75;;;27.10;57.30;;;;;;4927451;28;91799;-80
2022/06/15 06:44:12;;;;;;;7.07;2.30;;;27.30;57.40;;;;;;4928284;28;93194;-80
2022/06/15 06:46:42;;;;;;;10.95;2.20;;;27.30;56.90;;;;;;4926392;28;93405;-81
2022/06/15 06:49:08;;;;;;;3.80;1.83;;;26.80;57.50;;;;;;4927476;28;91797;-81
2022/06/15 06:51:36;;;;;;;5.45;2.03;;;26.30;58.60;;;;;;4927252;28;92034;-80
2022/06/15 06:54:03;;;;;;;5.45;2.45;;;26.00;58.90;;;;;;4928226;28;91830;-80
2022/06/15 06:56:28;;;;;;;6.00;2.55;;;25.80;60.40;;;;;;4922430;28;93203;-81
2022/06/15 06:58:54;;;;;;;3.63;1.70;;;25.60;60.10;;;;;;4922797;28;91749;-83
2022/06/15 07:01:20;;;;;;;4.13;1.85;;;25.60;60.40;;;;;;4918686;28;91160;-82
2022/06/15 07:03:47;;;;;;;4.60;2.00;;;26.60;61.90;;;;;;4918507;28;92003;-83
2022/06/15 07:06:13;;;;;;;4.47;2.10;;;28.30;56.30;;;;;;4898797;28;94251;-84
2022/06/15 07:08:39;;;;;;;7.18;2.65;;;28.70;53.10;;;;;;4913693;28;92911;-82
2022/06/15 07:11:16;;;;;;;5.13;2.20;;;28.20;53.80;;;;;;4921091;28;92442;-82
2022/06/15 07:13:43;;;;;;;6.95;2.60;;;28.90;54.20;;;;;;4916670;28;92424;-84
2022/06/15 07:16:16;;;;;;;4.90;2.72;;;30.40;51.30;;;;;;4918800;28;91995;-82
2022/06/15 07:18:46;;;;;;;4.57;2.22;;;30.90;49.90;;;;;;4921108;28;91970;-83
2022/06/15 07:21:15;;;;;;;5.07;2.42;;;30.00;50.30;;;;;;4916794;28;92054;-82
2022/06/15 07:23:45;;;;;;;4.85;2.03;;;28.70;52.20;;;;;;4916818;28;93105;-83
2022/06/15 07:26:14;;;;;;;4.28;2.35;;;27.80;55.90;;;;;;4917752;28;92234;-82
2022/06/15 07:28:41;;;;;;;5.25;1.80;;;27.10;57.20;;;;;;4918942;28;92173;-82
2022/06/15 07:31:08;;;;;;;5.72;2.75;;;27.00;58.50;;;;;;4923214;28;92763;-83
2022/06/15 07:33:36;;;;;;;3.92;2.40;;;27.50;57.80;;;;;;4918232;28;93653;-82
2022/06/15 07:36:03;;;;;;;6.75;2.53;;;27.70;54.60;;;;;;4920974;28;92643;-82
2022/06/15 07:38:28;;;;;;;4.50;2.35;;;27.60;55.30;;;;;;4910729;28;92363;-83
2022/06/15 07:40:57;;;;;;;6.22;2.40;;;27.30;56.50;;;;;;4922649;28;92209;-82
2022/06/15 07:43:23;;;;;;;;;;;27.50;55.80;;;;;;4914583;28;92571;-82
2022/06/15 07:45:49;;;;;;;5.47;2.25;;;27.60;55.60;;;;;;4919795;28;92169;-84
2022/06/15 07:50:59;;;;;;;4.47;2.17;;;27.70;57.10;;;;;;4912150;28;91261;-84
2022/06/15 07:53:25;;;;;;;5.13;2.47;;;29.80;53.00;;;;;;4919487;28;92488;-82
2022/06/15 07:55:52;;;;;;;3.25;2.00;;;31.00;49.90;;;;;;4910890;28;92843;-83
2022/06/15 07:58:19;;;;;;;4.40;1.75;;;31.00;49.10;;;;;;4915212;28;93437;-82
2022/06/15 08:00:47;;;;;;;4.60;2.30;;;30.50;49.30;;;;;;4911272;28;92446;-82
2022/06/15 08:03:13;;;;;;;5.40;3.05;;;29.60;50.00;;;;;;4911023;28;92307;-82
2022/06/15 08:05:43;;;;;;;6.80;3.60;;;28.40;52.30;;;;;;4922161;28;92031;-82
2022/06/15 08:08:18;;;;;;;5.68;2.25;;;28.30;53.80;;;;;;4919462;28;92092;-82
2022/06/15 08:10:45;;;;;;;5.53;2.60;;;28.20;53.20;;;;;;4908234;28;92623;-82
2022/06/15 08:13:11;;;;;;;4.50;2.45;;;28.20;56.10;;;;;;4911395;28;92655;-83
2022/06/15 08:15:37;;;;;;;6.70;2.22;;;29.10;53.50;;;;;;4913561;28;92299;-82
2022/06/15 08:18:09;;;;;;;6.45;2.40;;;31.30;52.30;;;;;;4911787;28;92065;-83
2022/06/15 08:20:57;;;;;;;4.47;2.17;;;34.20;47.60;;;;;;4914823;28;92473;-83
2022/06/15 08:23:25;;;;;;;4.97;2.97;;;36.40;44.10;;;;;;4913478;28;94747;-82
2022/06/15 08:25:56;;;;;;;5.07;2.72;;;37.10;42.40;;;;;;4910499;28;93246;-86
2022/06/15 08:28:24;;;;;;;4.88;2.95;;;36.30;40.20;;;;;;4909818;28;92061;-86
2022/06/15 08:30:51;;;;;;;5.30;2.95;;;34.50;44.40;;;;;;4917182;28;92478;-83
2022/06/15 08:33:17;;;;;;;6.43;3.22;;;32.40;46.90;;;;;;4911528;28;92735;-82
2022/06/15 08:35:43;;;;;;;6.75;2.90;;;32.20;48.80;;;;;;4909940;28;92160;-82
2022/06/15 08:38:12;;;;;;;4.95;2.88;;;33.20;46.60;;;;;;4909704;28;92003;-82
2022/06/15 08:40:47;;;;;;;8.25;2.80;;;32.70;45.70;;;;;;4917061;28;91141;-82
2022/06/15 08:43:30;;;;;;;5.97;2.63;;;32.00;47.30;;;;;;4919597;28;95060;-85
2022/06/15 08:46:08;;;;;;;6.72;2.85;;;32.80;45.80;;;;;;4913435;28;92080;-83
2022/06/15 08:48:39;;;;;;;5.97;3.42;;;33.40;44.10;;;;;;4899924;28;92973;-83
2022/06/15 08:51:11;;;;;;;8.35;2.70;;;32.20;47.70;;;;;;4911547;28;92066;-82
2022/06/15 08:53:51;;;;;;;4.63;2.45;;;31.60;47.80;;;;;;4917455;28;92029;-82
2022/06/15 08:56:30;;;;;;;6.78;3.05;;;31.40;48.00;;;;;;4920567;28;91993;-82
2022/06/15 08:59:02;;;;;;;5.88;2.58;;;31.00;48.90;;;;;;4910863;28;92108;-85
2022/06/15 09:01:47;;;;;;;5.63;3.20;;;31.60;48.80;;;;;;4910429;28;92091;-82
2022/06/15 09:04:36;;;;;;;5.95;2.20;;;31.50;49.60;;;;;;4918171;28;92618;-82
2022/06/15 09:07:27;;;;;;;5.78;2.97;;;32.50;46.20;;;;;;4909924;28;91559;-83
2022/06/15 09:10:17;;;;;;;6.28;2.33;;;32.00;47.20;;;;;;4921088;28;92087;-82
2022/06/15 09:13:22;;;;;;;8.20;3.72;;;31.80;47.60;;;;;;4916622;28;91936;-83
2022/06/15 09:16:07;;;;;;;8.73;4.13;;;31.90;47.50;;;;;;4888640;28;94150;-84
2022/06/15 09:18:52;;;;;;;5.38;2.85;;;31.50;49.70;;;;;;4921266;28;93833;-83
2022/06/15 09:21:17;;;;;;;6.05;3.47;;;32.20;51.10;;;;;;4902274;28;92237;-82
2022/06/15 09:24:05;;;;;;;6.63;3.25;;;33.40;46.20;;;;;;4919622;28;92010;-82
2022/06/15 09:27:00;;;;;;;7.53;3.25;;;33.80;45.80;;;;;;4918128;28;93189;-83
2022/06/15 09:29:33;;;;;;;5.22;2.85;;;33.70;45.90;;;;;;4910682;28;92022;-82
2022/06/15 09:32:22;;;;;;;5.82;3.15;;;33.00;47.60;;;;;;4913599;28;91919;-83
2022/06/15 09:35:23;;;;;;;5.45;3.15;;;33.00;47.70;;;;;;4913778;28;91216;-83
2022/06/15 09:37:53;;;;;;;7.10;3.58;;;32.50;49.50;;;;;;4891620;28;92022;-83
2022/06/15 09:40:19;;;;;;;5.63;3.60;;;33.90;46.90;;;;;;4919638;28;92941;-82
2022/06/15 09:43:12;;;;;;;7.97;3.25;;;35.90;44.00;;;;;;4912447;28;93283;-83
2022/06/15 09:45:37;;;;;;;9.93;4.00;;;36.40;43.50;;;;;;4908337;28;91688;-82
2022/06/15 09:48:21;;;;;;;5.45;3.70;;;35.40;42.90;;;;;;4915092;28;92292;-82
2022/06/15 09:51:19;;;;;;;5.20;3.05;;;35.50;44.40;;;;;;4913582;28;91820;-82
2022/06/15 09:54:08;;;;;;;6.13;3.20;;;34.40;44.40;;;;;;4911067;28;91606;-81
2022/06/15 09:56:34;;;;;;;9.20;3.65;;;33.40;47.00;;;;;;4922080;28;92215;-81
2022/06/15 09:59:04;;;;;;;5.05;2.97;;;33.10;47.00;;;;;;4913837;28;91845;-81
2022/06/15 10:01:38;;;;;;;7.25;4.18;;;32.60;49.70;;;;;;4912595;28;92342;-82
2022/06/15 10:04:07;;;;;;;6.50;3.33;;;32.60;48.90;;;;;;4916265;28;92266;-83
2022/06/15 10:06:33;;;;;;;4.82;3.05;;;33.10;49.60;;;;;;4916144;28;91943;-83
2022/06/15 10:09:01;;;;;;;7.35;3.33;;;34.60;46.20;;;;;;4914720;28;93053;-82
2022/06/15 10:11:40;;;;;;;5.47;3.05;;;34.90;44.50;;;;;;4912341;28;93036;-83
2022/06/15 10:14:29;;;;;;;6.75;3.88;;;34.80;44.00;;;;;;4915431;28;91738;-82
2022/06/15 10:17:05;;;;;;;5.65;3.10;;;33.90;45.20;;;;;;4910444;28;93135;-83
2022/06/15 10:19:34;;;;;;;6.47;3.35;;;33.30;47.30;;;;;;4901612;28;92262;-86
2022/06/15 10:22:06;;;;;;;5.13;3.60;;;32.20;48.30;;;;;;4906289;28;92583;-84
2022/06/15 10:24:36;;;;;;;8.13;3.28;;;31.40;52.40;;;;;;4905912;28;91894;-83
2022/06/15 10:27:31;;;;;;;6.00;3.13;;;31.20;50.50;;;;;;4908105;28;93731;-86
2022/06/15 10:30:14;;;;;;;9.32;3.15;;;31.20;50.10;;;;;;4919060;28;93306;-83
2022/06/15 10:32:58;;;;;;;6.10;3.13;;;31.10;51.00;;;;;;4914265;28;92373;-83
2022/06/15 10:35:24;;;;;;;3.97;2.60;;;30.90;50.30;;;;;;4915783;28;92975;-82
2022/06/15 10:37:53;;;;;;;3.67;1.95;;;31.10;46.80;;;;;;4917157;28;91934;-83
2022/06/15 10:40:29;;;;;;;3.10;2.15;;;30.60;47.30;;;;;;4917694;28;92588;-83
2022/06/15 10:43:06;;;;;;;6.72;2.17;;;30.50;49.30;;;;;;4912248;28;92919;-83
2022/06/15 10:45:57;;;;;;;3.17;2.03;;;30.80;48.00;;;;;;4892612;28;92184;-83
2022/06/15 10:48:22;;;;;;;3.88;1.88;;;30.90;47.20;;;;;;4919881;28;92515;-83
2022/06/15 10:51:06;;;;;;;4.47;2.08;;;31.00;48.20;;;;;;4914256;28;92179;-82
2022/06/15 10:53:43;;;;;;;3.97;2.05;;;31.10;46.20;;;;;;4915218;28;91921;-83
2022/06/15 11:02:49;;;;;;;4.65;2.55;;;31.10;46.40;;;;;;4921495;28;94411;-81
2022/06/15 11:05:21;;;;;;;5.03;1.85;;;31.20;47.10;;;;;;4910327;28;92086;-82
2022/06/15 11:07:47;;;;;;;4.57;1.27;;;31.40;47.00;;;;;;4908044;28;93181;-83
2022/06/15 11:10:57;;;;;;;3.72;2.22;;;31.50;46.40;;;;;;4903667;28;92259;-82
2022/06/15 11:13:36;;;;;;;3.33;1.85;;;31.40;45.00;;;;;;4831175;29;92481;-82
2022/06/15 11:19:12;;;;;;;4.18;2.22;;;31.40;45.50;;;;;;4923645;28;92037;-84
2022/06/15 11:22:08;;;;;;;4.97;1.80;;;31.40;46.90;;;;;;4922663;28;91202;-83
2022/06/15 11:24:42;;;;;;;4.25;1.73;;;31.20;47.20;;;;;;4906111;28;93139;-83
2022/06/15 11:27:16;;;;;;;3.83;1.60;;;31.10;47.80;;;;;;4922390;28;92038;-84
2022/06/15 11:29:57;;;;;;;5.22;1.45;;;31.20;47.20;;;;;;4913564;28;93194;-83
2022/06/15 11:32:42;;;;;;;5.30;1.58;;;31.20;46.10;;;;;;4923194;28;92040;-83
2022/06/15 11:35:13;;;;;;;3.42;1.23;;;30.70;50.30;;;;;;4923314;28;93342;-83
2022/06/15 11:37:47;;;;;;;2.80;2.05;;;30.40;46.50;;;;;;4922987;28;92333;-83
2022/06/15 11:40:16;;;;;;;5.47;1.33;;;30.50;46.10;;;;;;4923015;28;92013;-83
2022/06/15 11:42:48;;;;;;;4.70;1.83;;;30.20;47.80;;;;;;4921147;28;91996;-85
2022/06/15 11:45:15;;;;;;;3.40;2.10;;;30.00;48.20;;;;;;4922940;28;92560;-83
2022/06/15 11:48:07;;;;;;;5.53;1.02;;;29.80;47.60;;;;;;4923011;28;92013;-83
2022/06/15 11:50:44;;;;;;;3.88;1.38;;;29.60;45.80;;;;;;4922476;28;92166;-82
2022/06/15 11:53:22;;;;;;;3.75;2.20;;;29.50;46.30;;;;;;4924198;28;92052;-83
2022/06/15 11:55:57;;;;;;;2.30;1.02;;;29.60;47.20;;;;;;4911470;28;94139;-81
2022/06/15 11:58:26;;;;;;;3.17;1.33;;;29.60;46.70;;;;;;4922667;28;93242;-83
2022/06/15 12:01:10;;;;;;;;;;;29.50;49.90;;;;;;4923395;28;92011;-83
2022/06/15 12:04:14;;;;;;;6.18;1.45;;;29.30;46.70;;;;;;4920026;28;92163;-83
2022/06/15 12:07:03;;;;;;;7.78;1.40;;;29.20;48.80;;;;;;4920094;28;92099;-82
2022/06/15 12:09:35;;;;;;;9.85;1.90;;;29.30;48.30;;;;;;4914813;28;93454;-82
2022/06/15 12:12:37;;;;;;;4.50;1.25;;;29.40;51.00;;;;;;4918435;28;92177;-85
2022/06/15 12:15:12;;;;;;;4.47;1.75;;;29.40;52.20;;;;;;4916536;28;91343;-83
2022/06/15 12:18:08;;;;;;;4.35;1.60;;;29.30;49.40;;;;;;4920348;28;92306;-84
2022/06/15 12:20:58;;;;;;;4.40;2.42;;;29.30;49.80;;;;;;4914480;28;92246;-83
2022/06/15 12:23:47;;;;;;;5.82;2.00;;;29.30;51.20;;;;;;4919145;28;93045;-82
2022/06/15 12:26:26;;;;;;;4.03;1.35;;;29.50;50.30;;;;;;4904943;28;92048;-83
2022/06/15 12:29:09;;;;;;;3.95;1.73;;;29.30;49.10;;;;;;4911729;28;92755;-86
2022/06/15 12:32:30;;;;;;;3.38;1.63;;;29.40;47.50;;;;;;4918738;28;92001;-84
2022/06/15 12:35:09;;;;;;;6.05;1.75;;;29.30;47.60;;;;;;4914443;28;92149;-83
2022/06/15 12:37:57;;;;;;;3.35;1.75;;;29.30;48.90;;;;;;4921810;28;92490;-84
2022/06/15 12:40:34;;;;;;;5.75;1.98;;;29.30;52.20;;;;;;4909488;28;92014;-85
2022/06/15 12:43:29;;;;;;;4.70;1.45;;;29.20;50.20;;;;;;4918809;28;92418;-82
2022/06/15 12:46:16;;;;;;;4.10;1.33;;;29.20;51.10;;;;;;4921421;28;91794;-83
2022/06/15 12:48:57;;;;;;;7.22;1.52;;;29.20;50.80;;;;;;4914900;28;91843;-83
2022/06/15 12:51:51;;;;;;;3.15;1.63;;;29.30;49.30;;;;;;4919322;28;94718;-83
2022/06/15 12:54:20;;;;;;;3.67;2.00;;;29.30;49.30;;;;;;4921724;28;93527;-83
2022/06/15 12:57:02;;;;;;;5.63;1.80;;;28.90;49.80;;;;;;4920281;28;92656;-83
2022/06/15 12:59:43;;;;;;;2.90;1.25;;;29.00;50.70;;;;;;4914060;28;92302;-82
2022/06/15 13:02:19;;;;;;;2.58;1.65;;;29.10;50.20;;;;;;4918417;28;94053;-83
2022/06/15 13:04:45;;;;;;;3.80;1.55;;;29.20;50.60;;;;;;4919728;28;92080;-83
2022/06/15 13:07:34;;;;;;;3.30;1.55;;;29.20;51.00;;;;;;4922997;28;92464;-82
2022/06/15 13:10:24;;;;;;;4.70;1.75;;;29.10;51.70;;;;;;4896422;28;91845;-82
2022/06/15 13:12:54;;;;;;;3.92;1.88;;;29.10;51.60;;;;;;4914060;28;92142;-82
2022/06/15 13:15:53;;;;;;;4.40;1.50;;;29.10;51.70;;;;;;4917710;28;93881;-82
2022/06/15 13:18:42;;;;;;;5.28;2.30;;;29.10;51.20;;;;;;4915680;28;93436;-82
2022/06/15 13:21:09;;;;;;;6.45;1.33;;;29.10;51.40;;;;;;4917795;28;91800;-83
2022/06/15 13:23:41;;;;;;;6.72;1.45;;;29.00;52.00;;;;;;4916746;28;93242;-83
2022/06/15 13:26:12;;;;;;;6.68;2.03;;;29.00;52.60;;;;;;4918631;28;92946;-83
2022/06/15 13:28:45;;;;;;;5.10;2.08;;;29.10;52.10;;;;;;4922742;28;91875;-82
2022/06/15 13:31:33;;;;;;;5.68;1.45;;;29.10;53.10;;;;;;4918061;28;91771;-82
2022/06/15 13:34:01;;;;;;;5.72;1.90;;;29.20;52.90;;;;;;4910754;28;92719;-81
2022/06/15 13:36:28;;;;;;;4.38;1.75;;;29.20;53.70;;;;;;4921250;28;92392;-84
2022/06/15 13:38:54;;;;;;;6.95;1.77;;;29.10;52.00;;;;;;4913333;28;91700;-81
2022/06/15 13:41:20;;;;;;;5.10;1.52;;;29.10;55.30;;;;;;4924900;28;92137;-82
2022/06/15 13:43:51;;;;;;;2.83;1.63;;;29.30;54.50;;;;;;4921779;28;93589;-81
2022/06/15 13:46:29;;;;;;;3.63;1.40;;;29.40;51.70;;;;;;4921508;28;93210;-82
2022/06/15 13:49:14;;;;;;;5.85;1.98;;;29.40;50.50;;;;;;4918642;28;91727;-81
2022/06/15 13:52:04;;;;;;;3.03;1.90;;;29.40;52.70;;;;;;4912959;28;91931;-81
2022/06/15 13:54:59;;;;;;;4.55;2.35;;;29.40;53.40;;;;;;4925834;28;92433;-82
2022/06/15 13:58:06;;;;;;;5.65;1.45;;;29.40;52.50;;;;;;4918049;28;92198;-82
2022/06/15 14:00:47;;;;;;;3.60;2.08;;;29.40;54.70;;;;;;4916694;28;91937;-82
2022/06/15 14:03:53;;;;;;;4.53;2.17;;;29.40;54.80;;;;;;4918331;28;91408;-81
2022/06/15 14:06:38;;;;;;;8.85;1.90;;;29.40;53.70;;;;;;4844801;28;92336;-81
2022/06/15 14:09:19;;;;;;;4.30;1.45;;;29.30;55.20;;;;;;4922223;28;92901;-84
2022/06/15 14:12:12;;;;;;;5.55;1.77;;;29.30;53.50;;;;;;4915903;28;92647;-83
2022/06/15 14:15:08;;;;;;;5.45;1.52;;;29.20;54.70;;;;;;4915159;28;94446;-83
2022/06/15 14:18:02;;;;;;;6.72;1.50;;;29.30;52.80;;;;;;4914620;28;93075;-81
2022/06/15 14:20:31;;;;;;;3.03;1.67;;;29.30;52.00;;;;;;4911909;28;92280;-80
2022/06/15 14:23:01;;;;;;;5.68;1.83;;;29.20;52.20;;;;;;4922101;28;91717;-81
2022/06/15 14:25:27;;;;;;;3.47;1.67;;;29.20;54.30;;;;;;4913283;28;91377;-81
2022/06/15 14:27:58;;;;;;;4.53;1.20;;;29.00;52.00;;;;;;4923726;28;92282;-80
2022/06/15 14:30:31;;;;;;;5.95;2.00;;;28.80;53.60;;;;;;4926834;28;91891;-81
2022/06/15 14:33:00;;;;;;;6.38;2.38;;;28.70;54.40;;;;;;4919275;28;92264;-80
2022/06/15 14:35:28;;;;;;;3.75;1.70;;;28.80;50.90;;;;;;4918271;28;91846;-81
2022/06/15 14:37:56;;;;;;;11.90;1.50;;;28.80;53.70;;;;;;4917398;28;93724;-81
2022/06/15 14:40:43;;;;;;;6.57;1.63;;;28.80;52.10;;;;;;4922201;28;93817;-81
2022/06/15 14:43:11;;;;;;;4.38;1.42;;;29.00;54.50;;;;;;4919773;28;92036;-81
2022/06/15 14:45:39;;;;;;;3.53;1.35;;;28.90;52.60;;;;;;4908878;28;91853;-81
2022/06/15 14:48:13;;;;;;;4.80;2.22;;;29.00;53.70;;;;;;4913630;28;93315;-81
2022/06/15 14:50:41;;;;;;;8.65;1.85;;;29.20;53.60;;;;;;4920319;28;93230;-81
2022/06/15 14:53:15;;;;;;;4.50;1.70;;;29.30;51.90;;;;;;4928895;28;91780;-81
2022/06/15 14:55:41;;;;;;;4.32;1.50;;;29.30;51.10;;;;;;4925417;28;91541;-81
2022/06/15 14:58:12;;;;;;;6.70;1.58;;;29.30;51.80;;;;;;4922184;28;92374;-82
2022/06/15 15:00:38;;;;;;;5.38;1.90;;;29.20;51.60;;;;;;4921624;28;92370;-81
2022/06/15 15:03:04;;;;;;;5.72;1.67;;;29.00;50.80;;;;;;4914926;28;92804;-81
2022/06/15 15:05:34;;;;;;;6.35;1.60;;;29.10;50.80;;;;;;4916754;28;91924;-82
2022/06/15 15:08:39;;;;;;;6.60;1.42;;;29.20;51.10;;;;;;4922663;28;91825;-81
2022/06/15 15:11:11;;;;;;;5.53;1.80;;;29.20;50.30;;;;;;4916251;28;92157;-81
2022/06/15 15:13:44;;;;;;;6.72;2.10;;;29.20;51.00;;;;;;4916895;28;91973;-81
2022/06/15 15:16:19;;;;;;;6.45;1.55;;;29.20;51.30;;;;;;4923835;28;92082;-81
2022/06/15 15:18:56;;;;;;;3.85;1.40;;;29.40;50.90;;;;;;4928095;28;91615;-80
2022/06/15 15:21:34;;;;;;;8.18;1.83;;;29.30;50.90;;;;;;4930548;28;92389;-81
2022/06/15 15:24:02;;;;;;;4.47;1.85;;;29.20;51.10;;;;;;4920180;28;92080;-85
2022/06/15 15:26:28;;;;;;;3.92;2.15;;;29.20;51.00;;;;;;4922200;28;92217;-85
2022/06/15 15:34:31;;;;;;;5.80;2.08;;;29.20;51.00;;;;;;4919706;28;91977;-85
2022/06/15 15:39:49;;;;;;;5.88;1.92;;;28.90;51.80;;;;;;4911653;28;92147;-86
2022/06/15 15:42:21;;;;;;;8.70;1.80;;;28.90;53.20;;;;;;4922293;28;91444;-86
2022/06/15 15:44:48;;;;;;;6.30;1.63;;;28.80;52.60;;;;;;4927132;28;91910;-86
2022/06/15 15:47:16;;;;;;;4.45;1.58;;;28.90;52.00;;;;;;4929809;28;91306;-83
2022/06/15 15:49:43;;;;;;;4.75;1.58;;;29.00;50.80;;;;;;4928891;28;92053;-83
2022/06/15 15:52:13;;;;;;;4.38;1.25;;;29.00;50.20;;;;;;4917254;28;91880;-87
2022/06/15 15:54:39;;;;;;;7.38;2.45;;;29.00;51.00;;;;;;4920192;28;93021;-87
2022/06/15 15:57:09;;;;;;;4.00;1.60;;;29.00;52.60;;;;;;4922437;28;92124;-85
2022/06/15 15:59:36;;;;;;;4.00;1.63;;;29.10;51.80;;;;;;4927142;28;92272;-83
2022/06/15 16:02:02;;;;;;;3.35;1.58;;;29.20;51.00;;;;;;4935319;28;91775;-81
2022/06/15 16:04:35;;;;;;;4.70;1.42;;;29.20;51.90;;;;;;4931134;28;91803;-81
2022/06/15 16:07:05;;;;;;;3.25;1.80;;;29.20;50.40;;;;;;4932214;28;91927;-87
2022/06/15 16:09:31;;;;;;;5.80;1.63;;;29.10;50.40;;;;;;4933244;28;92257;-86
2022/06/15 16:11:57;;;;;;;3.13;1.70;;;29.20;50.40;;;;;;4934607;28;91419;-81
2022/06/15 16:14:23;;;;;;;4.90;1.77;;;29.10;51.80;;;;;;4929692;28;91303;-82
2022/06/15 16:16:49;;;;;;;4.63;2.13;;;29.00;51.10;;;;;;4933972;28;91367;-81
2022/06/15 16:19:15;;;;;;;5.65;1.73;;;29.10;50.50;;;;;;4933711;28;93496;-81
2022/06/15 16:21:43;;;;;;;7.68;2.05;;;29.10;52.90;;;;;;4927384;28;93691;-80
2022/06/15 16:24:11;;;;;;;4.22;1.55;;;29.00;53.60;;;;;;4926456;28;91720;-82
2022/06/15 16:26:36;;;;;;;5.18;1.85;;;29.00;53.70;;;;;;4925484;28;92189;-81
2022/06/15 16:29:03;;;;;;;9.18;1.63;;;28.90;52.30;;;;;;4932250;28;93831;-81